Time;durP1;ratioP1;P1;durP2;ratioP2;P2;SDS_P1;SDS_P2;PMS_P1;PMS_P2;Temp;Humidity;BMP_temperature;BMP_pressure;BME280_temperature;BME280_humidity;BME280_pressure;Samples;Min_cycle;Max_cycle;Signal;HPM_P1;HPM_P2
2023/05/21 00:01:24;;;;;;;;;;;;;;;17.24;73.04;97899.16;7377434;19;20351;-80
2023/05/21 00:03:51;;;;;;;;;;;;;;;17.18;73.23;97895.50;7383109;19;19922;-79
2023/05/21 00:06:19;;;;;;;;;;;;;;;17.21;73.27;97896.91;7381234;19;20650;-80
2023/05/21 00:08:46;;;;;;;;;;;;;;;17.16;73.37;97894.88;7379614;19;19915;-81
2023/05/21 00:11:13;;;;;;;;;;;;;;;17.13;73.54;97889.13;7375350;19;19933;-79
2023/05/21 00:13:40;;;;;;;;;;;;;;;17.10;73.78;97885.84;7379739;19;19918;-80
2023/05/21 00:16:07;;;;;;;;;;;;;;;17.12;73.43;97885.66;7376276;19;19925;-79
2023/05/21 00:18:33;;;;;;;;;;;;;;;17.13;73.50;97886.47;7375841;19;19926;-81
2023/05/21 00:21:00;;;;;;;;;;;;;;;17.12;73.65;97874.94;7376195;19;19929;-80
2023/05/21 00:23:27;;;;;;;;;;;;;;;17.12;73.76;97877.63;7377732;19;19951;-78
2023/05/21 00:25:55;;;;;;;;;;;;;;;17.10;73.84;97871.66;7374015;19;20380;-80
2023/05/21 00:28:21;;;;;;;;;;;;;;;17.07;74.11;97872.09;7376222;19;19934;-79
2023/05/21 00:30:48;;;;;;;;;;;;;;;17.04;74.27;97867.16;7371523;19;19918;-81
2023/05/21 00:33:15;;;;;;;;;;;;;;;17.03;74.18;97866.31;7372511;19;20420;-80
2023/05/21 00:35:42;;;;;;;;;;;;;;;17.05;74.31;97858.09;7376678;19;19934;-78
2023/05/21 00:38:08;;;;;;;;;;;;;;;17.03;74.20;97869.00;7377544;19;19923;-79
2023/05/21 00:40:35;;;;;;;;;;;;;;;17.00;74.30;97863.25;7377016;19;19919;-79
2023/05/21 00:43:02;;;;;;;;;;;;;;;17.00;74.52;97857.91;7375888;19;20269;-81
2023/05/21 00:45:28;;;;;;;;;;;;;;;16.96;74.46;97862.88;7378665;19;19929;-81
2023/05/21 00:47:55;;;;;;;;;;;;;;;16.99;74.58;97862.44;7375665;19;19926;-80
2023/05/21 00:50:23;;;;;;;;;;;;;;;16.92;74.58;97861.63;7373607;19;19918;-78
2023/05/21 00:52:50;;;;;;;;;;;;;;;16.94;75.00;97848.88;7378250;19;20245;-79
2023/05/21 00:55:17;;;;;;;;;;;;;;;16.94;74.84;97856.91;7375419;19;19918;-80
2023/05/21 00:57:44;;;;;;;;;;;;;;;16.90;75.01;97853.00;7375943;19;19944;-81
2023/05/21 01:00:13;;;;;;;;;;;;;;;16.90;75.01;97847.66;7370100;19;19925;-81
2023/05/21 01:02:40;;;;;;;;;;;;;;;16.82;75.34;97851.34;7385573;19;19927;-82
2023/05/21 01:05:07;;;;;;;;;;;;;;;16.87;75.41;97848.06;7384308;19;19915;-82
2023/05/21 01:07:34;;;;;;;;;;;;;;;16.88;75.62;97850.53;7385092;19;19923;-82
2023/05/21 01:10:02;;;;;;;;;;;;;;;16.82;75.83;97848.69;7385562;19;19919;-82
2023/05/21 01:12:30;;;;;;;;;;;;;;;16.75;75.90;97849.72;7386468;19;20385;-82
2023/05/21 01:14:58;;;;;;;;;;;;;;;16.74;76.04;97848.88;7384370;19;19918;-82
2023/05/21 01:17:26;;;;;;;;;;;;;;;16.74;76.04;97848.06;7385214;19;19925;-82
2023/05/21 01:19:53;;;;;;;;;;;;;;;16.71;76.43;97843.97;7386096;19;19931;-83
2023/05/21 01:22:20;;;;;;;;;;;;;;;16.64;76.36;97841.31;7382799;19;19914;-82
2023/05/21 01:24:48;;;;;;;;;;;;;;;16.63;76.42;97842.31;7382833;19;19940;-83
2023/05/21 01:27:15;;;;;;;;;;;;;;;16.64;76.46;97848.47;7381955;19;20017;-82
2023/05/21 01:29:42;;;;;;;;;;;;;;;16.61;76.41;97849.75;7383294;19;19929;-82
2023/05/21 01:32:17;;;;;;;;;;;;;;;16.58;76.42;97838.63;7381306;19;20795;-81
2023/05/21 01:34:50;;;;;;;;;;;;;;;16.57;76.64;97845.00;7383173;19;19919;-81
2023/05/21 01:37:20;;;;;;;;;;;;;;;16.54;77.07;97846.25;7381557;19;20305;-81
2023/05/21 01:39:50;;;;;;;;;;;;;;;16.52;76.90;97840.28;7382152;19;20016;-82
2023/05/21 01:42:18;;;;;;;;;;;;;;;16.53;77.17;97852.59;7380080;19;19934;-81
2023/05/21 01:44:45;;;;;;;;;;;;;;;16.50;77.44;97844.19;7386020;19;20551;-81
2023/05/21 01:47:11;;;;;;;;;;;;;;;16.49;77.44;97848.72;7386071;19;19926;-81
2023/05/21 01:49:38;;;;;;;;;;;;;;;16.51;77.12;97846.66;7386564;19;20323;-81
2023/05/21 01:52:05;;;;;;;;;;;;;;;16.51;77.15;97843.16;7376777;19;21568;-82
2023/05/21 01:54:31;;;;;;;;;;;;;;;16.53;77.30;97847.25;7383630;19;20345;-81
2023/05/21 01:57:00;;;;;;;;;;;;;;;16.48;77.48;97838.22;7385230;19;19925;-81
2023/05/21 01:59:28;;;;;;;;;;;;;;;16.46;77.48;97841.94;7383229;19;19919;-82
2023/05/21 02:01:55;;;;;;;;;;;;;;;16.46;77.49;97835.78;7382231;19;19922;-81
2023/05/21 02:04:22;;;;;;;;;;;;;;;16.43;77.51;97830.84;7385021;19;19926;-81
2023/05/21 02:06:48;;;;;;;;;;;;;;;16.43;77.68;97833.53;7386505;19;19922;-82
2023/05/21 02:09:15;;;;;;;;;;;;;;;16.44;77.54;97832.50;7384846;19;19939;-82
2023/05/21 02:11:42;;;;;;;;;;;;;;;16.36;77.72;97835.38;7378144;19;19918;-81
2023/05/21 02:14:09;;;;;;;;;;;;;;;16.39;77.84;97829.63;7382554;19;20265;-82
2023/05/21 02:16:37;;;;;;;;;;;;;;;16.33;77.87;97831.25;7383751;19;19926;-81
2023/05/21 02:19:05;;;;;;;;;;;;;;;16.34;77.96;97832.91;7383280;19;19922;-81
2023/05/21 02:21:32;;;;;;;;;;;;;;;16.32;77.86;97832.28;7384930;19;20299;-81
2023/05/21 02:23:59;;;;;;;;;;;;;;;16.31;77.75;97827.16;7380451;19;19926;-82
2023/05/21 02:26:26;;;;;;;;;;;;;;;16.25;77.83;97828.81;7385347;19;19939;-80
2023/05/21 02:28:53;;;;;;;;;;;;;;;16.27;78.15;97825.91;7385250;19;19918;-81
2023/05/21 02:31:20;;;;;;;;;;;;;;;16.26;78.06;97830.44;7382280;19;20341;-82
2023/05/21 02:33:46;;;;;;;;;;;;;;;16.17;78.52;97821.81;7386024;19;20010;-81
2023/05/21 02:36:14;;;;;;;;;;;;;;;16.18;78.60;97827.97;7384278;19;19919;-81
2023/05/21 02:38:44;;;;;;;;;;;;;;;16.17;78.52;97824.50;7385987;19;19926;-81
2023/05/21 02:41:11;;;;;;;;;;;;;;;16.13;78.52;97823.25;7379155;19;19991;-81
2023/05/21 02:43:40;;;;;;;;;;;;;;;16.02;79.29;97824.69;7383782;19;19929;-80
2023/05/21 02:46:07;;;;;;;;;;;;;;;16.05;79.19;97827.97;7385553;19;19923;-82
2023/05/21 02:48:34;;;;;;;;;;;;;;;16.04;79.48;97821.81;7381851;19;19983;-81
2023/05/21 02:51:03;;;;;;;;;;;;;;;16.06;79.19;97824.25;7382331;19;19926;-81
2023/05/21 02:53:30;;;;;;;;;;;;;;;16.01;79.05;97825.72;7382965;19;20600;-81
2023/05/21 02:55:57;;;;;;;;;;;;;;;16.01;79.12;97827.56;7381808;19;19929;-81
2023/05/21 02:58:24;;;;;;;;;;;;;;;15.98;79.08;97825.28;7381392;19;19914;-82
2023/05/21 03:00:52;;;;;;;;;;;;;;;15.93;78.92;97825.06;7384015;19;19932;-82
2023/05/21 03:03:19;;;;;;;;;;;;;;;15.90;79.11;97820.97;7382414;19;19949;-81
2023/05/21 03:05:47;;;;;;;;;;;;;;;15.80;79.27;97821.38;7384042;19;19927;-81
2023/05/21 03:08:13;;;;;;;;;;;;;;;15.67;80.09;97810.66;7385682;19;20276;-81
2023/05/21 03:10:40;;;;;;;;;;;;;;;15.72;79.88;97823.41;7386513;19;19914;-82
2023/05/21 03:13:07;;;;;;;;;;;;;;;15.69;79.67;97813.97;7397538;19;19926;-82
2023/05/21 03:15:37;;;;;;;;;;;;;;;15.66;79.59;97806.31;7392571;19;19923;-82
2023/05/21 03:18:04;;;;;;;;;;;;;;;15.68;79.57;97816.78;7388075;19;20254;-81
2023/05/21 03:20:32;;;;;;;;;;;;;;;15.65;79.78;97817.22;7385111;19;19930;-81
2023/05/21 03:22:59;;;;;;;;;;;;;;;15.64;79.75;97812.88;7387153;19;20652;-81
2023/05/21 03:25:26;;;;;;;;;;;;;;;15.66;79.77;97806.31;7382138;19;19926;-81
2023/05/21 03:27:53;;;;;;;;;;;;;;;15.65;79.72;97810.03;7384561;19;19919;-81
2023/05/21 03:30:40;;;;;;;;;;;;;;;15.58;80.28;97811.84;7384488;19;19923;-81
2023/05/21 03:33:26;;;;;;;;;;;;;;;15.59;80.07;97814.31;7386643;19;19945;-81
2023/05/21 03:35:53;;;;;;;;;;;;;;;15.59;80.10;97810.84;7385080;19;20403;-81
2023/05/21 03:38:21;;;;;;;;;;;;;;;15.56;80.07;97805.88;7381377;19;19933;-81
2023/05/21 03:40:48;;;;;;;;;;;;;;;15.55;80.37;97812.25;7382831;19;20490;-81
2023/05/21 03:43:15;;;;;;;;;;;;;;;15.53;80.54;97806.28;7383514;19;19915;-81
2023/05/21 03:45:42;;;;;;;;;;;;;;;15.53;80.33;97803.63;7380150;19;19918;-80
2023/05/21 03:48:30;;;;;;;;;;;;;;;15.53;80.39;97809.81;7384894;19;19994;-81
2023/05/21 03:50:57;;;;;;;;;;;;;;;15.52;80.48;97807.31;7386911;19;19970;-81
2023/05/21 03:53:24;;;;;;;;;;;;;;;15.50;80.68;97806.69;7383120;19;19919;-81
2023/05/21 03:55:53;;;;;;;;;;;;;;;15.48;80.65;97808.75;7380583;19;19921;-81
2023/05/21 03:58:22;;;;;;;;;;;;;;;15.46;80.68;97811.63;7380027;19;19922;-81
2023/05/21 04:00:49;;;;;;;;;;;;;;;15.44;80.58;97812.84;7378603;19;19918;-81
2023/05/21 04:03:16;;;;;;;;;;;;;;;15.49;80.74;97818.41;7378835;19;19982;-81
2023/05/21 04:05:43;;;;;;;;;;;;;;;15.47;80.83;97817.78;7376347;19;19919;-80
2023/05/21 04:08:11;;;;;;;;;;;;;;;15.49;80.95;97829.06;7377787;19;19947;-81
2023/05/21 04:10:37;;;;;;;;;;;;;;;15.50;80.88;97828.03;7380130;19;20248;-80
2023/05/21 04:13:04;;;;;;;;;;;;;;;15.47;81.10;97825.75;7378701;19;19986;-81
2023/05/21 04:15:31;;;;;;;;;;;;;;;15.49;80.97;97829.88;7378411;19;19950;-80
2023/05/21 04:17:59;;;;;;;;;;;;;;;15.50;80.75;97841.34;7382161;19;19922;-81
2023/05/21 04:20:26;;;;;;;;;;;;;;;15.51;80.75;97843.84;7379862;19;19915;-80
2023/05/21 04:22:52;;;;;;;;;;;;;;;15.39;81.00;97841.94;7381773;19;19925;-80
2023/05/21 04:25:21;;;;;;;;;;;;;;;15.34;81.29;97840.69;7379497;19;19982;-81
2023/05/21 04:27:48;;;;;;;;;;;;;;;15.29;81.17;97844.97;7378677;19;19939;-81
2023/05/21 04:30:18;;;;;;;;;;;;;;;15.35;81.62;97842.34;7377839;19;19951;-81
2023/05/21 04:32:47;;;;;;;;;;;;;;;15.31;81.60;97851.75;7379025;19;19943;-81
2023/05/21 04:35:14;;;;;;;;;;;;;;;15.33;81.45;97856.88;7378383;19;19923;-81
2023/05/21 04:37:44;;;;;;;;;;;;;;;15.30;81.63;97852.78;7377634;19;19923;-80
2023/05/21 04:40:17;;;;;;;;;;;;;;;15.27;81.79;97852.34;7377126;19;19925;-80
2023/05/21 04:42:49;;;;;;;;;;;;;;;15.32;81.86;97845.41;7381790;19;19923;-81
2023/05/21 04:45:17;;;;;;;;;;;;;;;15.41;81.84;97861.22;7378037;19;19937;-81
2023/05/21 04:47:46;;;;;;;;;;;;;;;15.46;81.53;97861.47;7377541;19;19938;-80
2023/05/21 04:50:13;;;;;;;;;;;;;;;15.52;81.66;97858.78;7380165;19;19915;-81
2023/05/21 04:52:40;;;;;;;;;;;;;;;15.56;81.73;97851.22;7373382;19;19982;-81
2023/05/21 04:55:07;;;;;;;;;;;;;;;15.61;81.64;97848.75;7376024;19;19915;-80
2023/05/21 04:57:34;;;;;;;;;;;;;;;15.68;81.58;97859.47;7376942;19;19925;-81
2023/05/21 05:00:02;;;;;;;;;;;;;;;15.68;81.30;97864.78;7378330;19;20320;-81
2023/05/21 05:02:35;;;;;;;;;;;;;;;15.59;80.96;97856.16;7376867;19;19915;-81
2023/05/21 05:05:02;;;;;;;;;;;;;;;15.52;81.22;97863.31;7379635;19;19918;-80
2023/05/21 05:07:29;;;;;;;;;;;;;;;15.61;81.50;97863.94;7378072;19;19926;-81
2023/05/21 05:09:56;;;;;;;;;;;;;;;15.66;81.44;97854.31;7380328;19;20192;-81
2023/05/21 05:12:22;;;;;;;;;;;;;;;15.58;81.73;97857.16;7376683;19;19926;-80
2023/05/21 05:14:49;;;;;;;;;;;;;;;15.60;81.89;97860.47;7378417;19;19949;-81
2023/05/21 05:17:16;;;;;;;;;;;;;;;15.61;81.75;97864.75;7375600;19;19994;-80
2023/05/21 05:19:45;;;;;;;;;;;;;;;15.61;81.74;97863.94;7377354;19;19926;-81
2023/05/21 05:22:12;;;;;;;;;;;;;;;15.52;81.94;97858.78;7374232;19;19931;-81
2023/05/21 05:24:40;;;;;;;;;;;;;;;15.51;81.68;97853.69;7377795;19;20703;-80
2023/05/21 05:27:07;;;;;;;;;;;;;;;15.60;81.71;97857.81;7375366;19;19983;-80
2023/05/21 05:29:33;;;;;;;;;;;;;;;15.66;81.60;97865.00;7376727;19;19922;-80
2023/05/21 05:32:00;;;;;;;;;;;;;;;15.66;81.15;97862.31;7375749;19;19923;-81
2023/05/21 05:34:27;;;;;;;;;;;;;;;15.65;80.96;97866.03;7372952;19;19922;-81
2023/05/21 05:36:56;;;;;;;;;;;;;;;15.68;80.95;97865.63;7375025;19;19921;-81
2023/05/21 05:39:23;;;;;;;;;;;;;;;15.79;81.01;97862.38;7371873;19;19989;-81
2023/05/21 05:41:50;;;;;;;;;;;;;;;15.75;81.25;97855.81;7374346;19;20027;-81
2023/05/21 05:44:17;;;;;;;;;;;;;;;15.73;81.42;97863.19;7373422;19;19923;-81
2023/05/21 05:46:43;;;;;;;;;;;;;;;15.75;81.63;97865.69;7377505;19;20412;-81
2023/05/21 05:49:10;;;;;;;;;;;;;;;15.76;81.58;97862.78;7383272;19;20262;-81
2023/05/21 05:51:38;;;;;;;;;;;;;;;15.76;81.94;97862.78;7381844;19;19926;-80
2023/05/21 05:54:05;;;;;;;;;;;;;;;15.85;81.63;97870.59;7382830;19;19986;-82
2023/05/21 05:56:33;;;;;;;;;;;;;;;15.85;81.45;97865.28;7388009;19;19919;-80
2023/05/21 05:59:00;;;;;;;;;;;;;;;15.86;82.13;97865.09;7381538;19;20355;-81
2023/05/21 06:01:28;;;;;;;;;;;;;;;15.91;81.60;97859.97;7381843;19;19919;-81
2023/05/21 06:03:56;;;;;;;;;;;;;;;15.95;81.70;97866.53;7386635;19;19924;-81
2023/05/21 06:06:23;;;;;;;;;;;;;;;15.97;81.35;97861.00;7383401;19;19974;-82
2023/05/21 06:08:50;;;;;;;;;;;;;;;16.02;80.55;97871.88;7383025;19;19921;-81
2023/05/21 06:11:18;;;;;;;;;;;;;;;16.08;81.56;97862.25;7383840;19;20020;-81
2023/05/21 06:13:45;;;;;;;;;;;;;;;16.12;81.66;97874.16;7386618;19;19922;-80
2023/05/21 06:16:14;;;;;;;;;;;;;;;16.18;81.60;97871.50;7385472;19;20467;-81
2023/05/21 06:18:41;;;;;;;;;;;;;;;16.21;81.46;97864.91;7383155;19;19914;-81
2023/05/21 06:21:08;;;;;;;;;;;;;;;16.23;81.26;97871.69;7388165;19;19918;-81
2023/05/21 06:23:36;;;;;;;;;;;;;;;16.33;81.60;97873.16;7388518;19;19934;-82
2023/05/21 06:26:03;;;;;;;;;;;;;;;16.37;80.86;97871.72;7387583;19;19955;-82
2023/05/21 06:28:30;;;;;;;;;;;;;;;16.46;80.77;97862.47;7383376;19;21090;-81
2023/05/21 06:30:58;;;;;;;;;;;;;;;16.44;80.60;97867.19;7384656;19;19923;-82
2023/05/21 06:33:26;;;;;;;;;;;;;;;16.58;79.93;97865.34;7386920;19;19915;-81
2023/05/21 06:35:53;;;;;;;;;;;;;;;16.59;79.52;97873.16;7393906;19;19962;-81
2023/05/21 06:38:20;;;;;;;;;;;;;;;16.58;79.56;97866.16;7387790;19;19923;-80
2023/05/21 06:40:47;;;;;;;;;;;;;;;16.68;79.92;97866.56;7379469;19;19919;-80
2023/05/21 06:43:24;;;;;;;;;;;;;;;16.79;80.04;97865.13;7384904;19;19919;-80
2023/05/21 06:46:09;;;;;;;;;;;;;;;16.86;80.32;97865.97;7389886;19;19918;-81
2023/05/21 06:48:38;;;;;;;;;;;;;;;16.91;80.18;97872.53;7384428;19;19925;-79
2023/05/21 06:51:05;;;;;;;;;;;;;;;16.79;79.55;97878.50;7383370;19;19922;-79
2023/05/21 06:53:32;;;;;;;;;;;;;;;16.72;79.67;97871.47;7382668;19;19923;-78
2023/05/21 06:55:59;;;;;;;;;;;;;;;16.64;79.84;97875.19;7383001;19;19910;-79
2023/05/21 06:58:37;;;;;;;;;;;;;;;16.70;79.66;97874.38;7380089;19;19922;-79
2023/05/21 07:01:04;;;;;;;;;;;;;;;16.69;79.92;97878.06;7382772;19;19922;-79
2023/05/21 07:03:31;;;;;;;;;;;;;;;16.78;79.59;97876.06;7383744;19;19919;-78
2023/05/21 07:05:58;;;;;;;;;;;;;;;16.76;79.71;97883.41;7379803;19;19936;-79
2023/05/21 07:08:25;;;;;;;;;;;;;;;16.80;79.54;97880.16;7377926;19;19919;-81
2023/05/21 07:10:52;;;;;;;;;;;;;;;16.79;79.84;97883.03;7379307;19;20475;-77
2023/05/21 07:13:18;;;;;;;;;;;;;;;16.91;78.81;97881.38;7382760;19;20648;-78
2023/05/21 07:15:46;;;;;;;;;;;;;;;16.96;79.39;97884.25;7380252;19;19922;-78
2023/05/21 07:18:13;;;;;;;;;;;;;;;17.01;79.11;97881.75;7379212;19;19922;-78
2023/05/21 07:20:40;;;;;;;;;;;;;;;17.06;78.48;97881.97;7377221;19;19961;-78
2023/05/21 07:23:10;;;;;;;;;;;;;;;17.04;77.91;97885.88;7381476;19;19922;-80
2023/05/21 07:25:37;;;;;;;;;;;;;;;17.10;78.05;97885.84;7380048;19;19914;-80
2023/05/21 07:28:04;;;;;;;;;;;;;;;16.98;77.81;97884.00;7380694;19;19927;-81
2023/05/21 07:30:32;;;;;;;;;;;;;;;17.11;77.30;97889.31;7378363;19;19944;-80
2023/05/21 07:33:00;;;;;;;;;;;;;;;17.19;77.60;97883.75;7380162;19;19925;-80
2023/05/21 07:35:27;;;;;;;;;;;;;;;17.27;77.40;97885.38;7377519;19;19914;-81
2023/05/21 07:37:55;;;;;;;;;;;;;;;17.26;76.78;97884.56;7379511;19;19927;-81
2023/05/21 07:40:22;;;;;;;;;;;;;;;17.32;76.28;97882.91;7379799;19;20026;-81
2023/05/21 07:42:49;;;;;;;;;;;;;;;17.42;75.49;97883.28;7371435;19;19928;-80
2023/05/21 07:45:17;;;;;;;;;;;;;;;17.32;74.91;97882.91;7381635;19;19934;-81
2023/05/21 07:47:45;;;;;;;;;;;;;;;17.40;76.50;97877.31;7381918;19;20762;-81
2023/05/21 07:50:13;;;;;;;;;;;;;;;17.37;75.49;97880.41;7384459;19;19947;-81
2023/05/21 07:52:40;;;;;;;;;;;;;;;17.54;75.92;97876.25;7381051;19;19953;-81
2023/05/21 07:55:07;;;;;;;;;;;;;;;17.70;76.68;97874.13;7379659;19;21046;-79
2023/05/21 07:57:35;;;;;;;;;;;;;;;17.84;74.29;97874.91;7377443;19;19926;-80
2023/05/21 08:00:12;;;;;;;;;;;;;;;18.03;73.74;97873.94;7383682;19;19947;-80
2023/05/21 08:02:48;;;;;;;;;;;;;;;18.13;73.65;97873.47;7380045;19;20636;-79
2023/05/21 08:05:15;;;;;;;;;;;;;;;18.00;72.07;97877.06;7377839;19;19922;-77
2023/05/21 08:07:42;;;;;;;;;;;;;;;18.08;71.24;97871.44;7381498;19;19927;-79
2023/05/21 08:10:09;;;;;;;;;;;;;;;18.17;70.67;97874.69;7379599;19;19918;-80
2023/05/21 08:12:36;;;;;;;;;;;;;;;18.23;70.84;97876.50;7376098;19;19929;-80
2023/05/21 08:15:04;;;;;;;;;;;;;;;18.30;69.96;97876.44;7379433;19;19930;-79
2023/05/21 08:17:34;;;;;;;;;;;;;;;18.29;69.83;97869.44;7377855;19;19918;-79
2023/05/21 08:20:03;;;;;;;;;;;;;;;18.09;70.52;97874.94;7381608;19;19919;-79
2023/05/21 08:22:30;;;;;;;;;;;;;;;18.23;70.96;97873.00;7380354;19;19922;-81
2023/05/21 08:24:58;;;;;;;;;;;;;;;18.40;73.02;97869.59;7381496;19;20234;-81
2023/05/21 08:27:24;;;;;;;;;;;;;;;18.49;72.42;97875.47;7385001;19;19919;-81
2023/05/21 08:29:51;;;;;;;;;;;;;;;18.63;72.41;97873.50;7382937;19;20258;-80
2023/05/21 08:32:18;;;;;;;;;;;;;;;18.68;72.29;97881.69;7379609;19;19926;-82
2023/05/21 08:34:45;;;;;;;;;;;;;;;18.65;72.63;97874.09;7379527;19;19926;-81
2023/05/21 08:37:31;;;;;;;;;;;;;;;18.60;71.86;97876.63;7378689;19;19958;-82
2023/05/21 08:40:04;;;;;;;;;;;;;;;18.65;73.16;97877.59;7380880;19;20027;-81
2023/05/21 08:42:39;;;;;;;;;;;;;;;18.78;74.35;97882.06;7376265;19;19943;-82
2023/05/21 08:45:07;;;;;;;;;;;;;;;18.79;72.01;97878.31;7381248;19;20322;-81
2023/05/21 08:47:35;;;;;;;;;;;;;;;18.84;73.26;97873.13;7379347;19;19927;-82
2023/05/21 08:50:04;;;;;;;;;;;;;;;18.92;73.90;97876.56;7381874;19;19915;-82
2023/05/21 08:52:31;;;;;;;;;;;;;;;18.89;72.57;97871.66;7377522;19;19919;-83
2023/05/21 08:54:57;;;;;;;;;;;;;;;19.09;72.78;97883.00;7380937;19;19974;-81
2023/05/21 08:57:24;;;;;;;;;;;;;;;19.18;72.73;97876.28;7378061;19;19986;-82
2023/05/21 08:59:51;;;;;;;;;;;;;;;19.22;67.88;97869.44;7379129;19;20371;-82
2023/05/21 09:02:24;;;;;;;;;;;;;;;19.26;67.17;97867.94;7374667;19;19919;-80
2023/05/21 09:04:57;;;;;;;;;;;;;;;19.08;66.69;97878.66;7375618;19;19919;-84
2023/05/21 09:07:26;;;;;;;;;;;;;;;19.05;67.27;97876.44;7377424;19;19918;-81
2023/05/21 09:10:23;;;;;;;;;;;;;;;19.21;69.05;97883.06;7378588;19;19927;-82
2023/05/21 09:12:50;;;;;;;;;;;;;;;19.42;66.93;97887.16;7376029;19;19933;-81
2023/05/21 09:15:16;;;;;;;;;;;;;;;19.56;67.79;97882.44;7378053;19;19919;-79
2023/05/21 09:17:47;;;;;;;;;;;;;;;19.42;67.95;97884.47;7380104;19;19918;-78
2023/05/21 09:20:29;;;;;;;;;;;;;;;19.62;64.26;97884.25;7378000;19;19927;-81
2023/05/21 09:23:03;;;;;;;;;;;;;;;19.70;62.90;97884.78;7381956;19;20372;-82
2023/05/21 09:25:31;;;;;;;;;;;;;;;19.89;64.47;97880.19;7380889;19;19953;-77
2023/05/21 09:28:10;;;;;;;;;;;;;;;20.05;64.69;97889.47;7384055;19;19923;-80
2023/05/21 09:30:45;;;;;;;;;;;;;;;20.11;66.40;97882.38;7385946;19;19914;-82
2023/05/21 09:33:23;;;;;;;;;;;;;;;20.25;64.13;97880.28;7382627;19;19987;-81
2023/05/21 09:35:50;;;;;;;;;;;;;;;20.73;63.71;97879.38;7388340;19;19921;-82
2023/05/21 09:38:17;;;;;;;;;;;;;;;20.72;63.85;97883.09;7387058;19;19943;-84
2023/05/21 09:40:45;;;;;;;;;;;;;;;20.88;64.92;97882.41;7390708;19;19925;-83
2023/05/21 09:43:14;;;;;;;;;;;;;;;21.11;63.89;97870.00;7392329;19;20759;-81
2023/05/21 09:45:51;;;;;;;;;;;;;;;21.13;59.13;97871.38;7387136;19;20053;-82
2023/05/21 09:48:31;;;;;;;;;;;;;;;21.60;60.56;97871.31;7384782;19;19925;-82
2023/05/21 09:51:09;;;;;;;;;;;;;;;21.89;55.71;97877.53;7382827;19;19923;-79
2023/05/21 09:53:39;;;;;;;;;;;;;;;22.62;57.14;97872.34;7388701;19;19919;-79
2023/05/21 09:56:05;;;;;;;;;;;;;;;22.85;53.39;97865.94;7398021;19;19927;-79
2023/05/21 09:58:33;;;;;;;;;;;;;;;22.76;53.75;97865.56;7395699;19;19919;-81
2023/05/21 10:00:59;;;;;;;;;;;;;;;22.95;54.55;97859.88;7397386;19;19915;-82
2023/05/21 10:03:27;;;;;;;;;;;;;;;22.98;52.27;97867.50;7381510;19;19923;-83
2023/05/21 10:05:54;;;;;;;;;;;;;;;23.14;56.82;97855.84;7386784;19;19933;-83
2023/05/21 10:08:21;;;;;;;;;;;;;;;23.29;57.00;97857.94;7387073;19;20644;-80
2023/05/21 10:10:48;;;;;;;;;;;;;;;23.32;51.33;97862.84;7383950;19;19927;-82
2023/05/21 10:13:15;;;;;;;;;;;;;;;23.57;50.48;97865.06;7383674;19;19939;-81
2023/05/21 10:15:47;;;;;;;;;;;;;;;23.47;50.75;97862.22;7385558;19;19933;-83
2023/05/21 10:18:17;;;;;;;;;;;;;;;23.21;51.60;97855.69;7388033;19;20342;-84
2023/05/21 10:20:43;;;;;;;;;;;;;;;22.81;53.02;97858.63;7387585;19;20329;-82
2023/05/21 10:23:11;;;;;;;;;;;;;;;23.08;52.58;97853.34;7384658;19;21092;-78
2023/05/21 10:25:38;;;;;;;;;;;;;;;23.53;54.27;97845.00;7384566;19;20358;-81
2023/05/21 10:28:05;;;;;;;;;;;;;;;23.54;49.46;97846.66;7381178;19;19919;-82
2023/05/21 10:30:32;;;;;;;;;;;;;;;23.42;52.50;97851.38;7384825;19;19919;-78
2023/05/21 10:33:00;;;;;;;;;;;;;;;22.96;54.05;97843.50;7381583;19;19927;-79
2023/05/21 10:35:27;;;;;;;;;;;;;;;22.89;52.59;97847.41;7384368;19;20667;-81
2023/05/21 10:37:54;;;;;;;;;;;;;;;22.97;55.40;97852.41;7384759;19;19923;-81
2023/05/21 10:40:21;;;;;;;;;;;;;;;23.02;55.81;97855.16;7386067;19;19911;-81
2023/05/21 10:43:06;;;;;;;;;;;;;;;22.82;54.72;97849.44;7387250;19;19929;-83
2023/05/21 10:45:46;;;;;;;;;;;;;;;22.78;53.07;97847.25;7384615;19;20341;-81
2023/05/21 10:48:32;;;;;;;;;;;;;;;22.93;51.38;97843.13;7378943;19;19914;-81
2023/05/21 10:51:17;;;;;;;;;;;;;;;22.84;53.12;97842.75;7383738;19;19922;-82
2023/05/21 10:53:58;;;;;;;;;;;;;;;22.83;54.08;97841.13;7383114;19;19911;-77
2023/05/21 10:56:29;;;;;;;;;;;;;;;23.04;52.16;97841.41;7380852;19;19949;-78
2023/05/21 10:59:20;;;;;;;;;;;;;;;23.02;56.75;97843.56;7386493;19;19941;-82
2023/05/21 11:01:49;;;;;;;;;;;;;;;23.12;55.93;97836.44;7385837;19;20487;-78
2023/05/21 11:04:16;;;;;;;;;;;;;;;23.45;56.18;97842.75;7384554;19;19921;-80
2023/05/21 11:06:47;;;;;;;;;;;;;;;23.53;54.36;97839.63;7378585;19;20382;-81
2023/05/21 11:09:14;;;;;;;;;;;;;;;23.66;52.83;97839.22;7385208;19;19930;-78
2023/05/21 11:11:45;;;;;;;;;;;;;;;23.65;53.36;97843.00;7381759;19;19919;-76
2023/05/21 11:14:30;;;;;;;;;;;;;;;23.80;51.66;97838.84;7378579;19;22270;-78
2023/05/21 11:16:57;;;;;;;;;;;;;;;23.57;52.12;97831.84;7380387;19;20256;-77
2023/05/21 11:19:34;;;;;;;;;;;;;;;23.74;50.27;97835.28;7380789;19;19926;-75
2023/05/21 11:22:06;;;;;;;;;;;;;;;23.74;50.86;97835.28;7382903;19;19943;-80
2023/05/21 11:24:34;;;;;;;;;;;;;;;24.01;53.09;97829.06;7381324;19;20382;-80
2023/05/21 11:27:03;;;;;;;;;;;;;;;24.03;51.00;97833.13;7379001;19;19930;-80
2023/05/21 11:29:39;;;;;;;;;;;;;;;23.99;51.77;97832.03;7383641;19;19922;-83
2023/05/21 11:32:08;;;;;;;;;;;;;;;24.07;51.68;97831.56;7384270;19;19926;-81
2023/05/21 11:34:38;;;;;;;;;;;;;;;24.07;50.90;97828.88;7380423;19;19922;-78
2023/05/21 11:37:17;;;;;;;;;;;;;;;24.05;51.47;97831.00;7380194;19;19922;-79
2023/05/21 11:39:44;;;;;;;;;;;;;;;24.07;50.11;97819.94;7383418;19;19915;-80
2023/05/21 11:42:26;;;;;;;;;;;;;;;24.16;49.23;97823.81;7384230;19;19953;-81
2023/05/21 11:44:54;;;;;;;;;;;;;;;24.26;52.02;97814.97;7383381;19;20318;-82
2023/05/21 11:47:20;;;;;;;;;;;;;;;24.18;53.72;97818.97;7383430;19;19923;-81
2023/05/21 11:49:48;;;;;;;;;;;;;;;24.29;52.64;97820.66;7385662;19;19927;-78
2023/05/21 11:52:14;;;;;;;;;;;;;;;24.26;51.80;97826.59;7381585;19;20388;-77
2023/05/21 11:54:44;;;;;;;;;;;;;;;24.34;50.74;97827.22;7384472;19;20275;-81
2023/05/21 11:57:14;;;;;;;;;;;;;;;24.20;51.61;97827.63;7386461;19;20134;-78
2023/05/21 11:59:41;;;;;;;;;;;;;;;24.16;52.13;97828.41;7384861;19;19981;-82
2023/05/21 12:02:08;;;;;;;;;;;;;;;24.16;51.54;97826.50;7385774;19;19928;-84
2023/05/21 12:04:35;;;;;;;;;;;;;;;24.50;50.32;97821.69;7388126;19;20325;-79
2023/05/21 12:07:08;;;;;;;;;;;;;;;24.49;50.06;97820.06;7380602;19;19915;-78
2023/05/21 12:09:38;;;;;;;;;;;;;;;24.62;46.06;97829.63;7376659;19;20285;-79
2023/05/21 12:12:06;;;;;;;;;;;;;;;24.89;48.29;97828.72;7381951;19;19929;-78
2023/05/21 12:14:33;;;;;;;;;;;;;;;24.79;45.93;97823.22;7378664;19;19919;-78
2023/05/21 12:17:01;;;;;;;;;;;;;;;24.97;48.81;97829.03;7380446;19;19982;-80
2023/05/21 12:19:30;;;;;;;;;;;;;;;24.70;49.45;97826.44;7379517;19;19922;-78
2023/05/21 12:21:58;;;;;;;;;;;;;;;24.79;48.22;97825.94;7381658;19;19974;-83
2023/05/21 12:24:25;;;;;;;;;;;;;;;23.99;51.06;97825.81;7384123;19;19922;-81
2023/05/21 12:26:53;;;;;;;;;;;;;;;24.15;47.52;97824.88;7389539;19;19915;-81
2023/05/21 12:29:22;;;;;;;;;;;;;;;23.89;52.63;97823.84;7383811;19;19926;-81
2023/05/21 12:31:48;;;;;;;;;;;;;;;23.92;53.08;97826.03;7382708;19;20372;-78
2023/05/21 12:34:18;;;;;;;;;;;;;;;23.79;50.98;97826.44;7381974;19;20284;-80
2023/05/21 12:36:47;;;;;;;;;;;;;;;24.10;50.77;97819.44;7381334;19;19911;-81
2023/05/21 12:39:14;;;;;;;;;;;;;;;24.22;53.31;97819.25;7383650;19;19953;-83
2023/05/21 12:41:42;;;;;;;;;;;;;;;24.13;50.87;97821.63;7385505;19;19939;-82
2023/05/21 12:44:10;;;;;;;;;;;;;;;24.07;51.68;97814.56;7384283;19;19933;-83
2023/05/21 12:46:37;;;;;;;;;;;;;;;23.98;53.47;97819.59;7383202;19;19919;-84
2023/05/21 12:49:04;;;;;;;;;;;;;;;23.89;57.11;97821.13;7381132;19;19923;-80
2023/05/21 12:51:38;;;;;;;;;;;;;;;23.90;52.31;97819.25;7382846;19;19967;-82
2023/05/21 12:54:10;;;;;;;;;;;;;;;24.06;52.02;97821.81;7381642;19;19919;-82
2023/05/21 12:56:44;;;;;;;;;;;;;;;24.48;49.88;97818.41;7387942;19;19923;-82